EPWA/WAW METAR and TAF weather

Enter ICAO airport designator
Station Type Date Time Source
EPWA METAR 2019/04/23 00:00 UTC NOAA

EPWA 230000Z 10010KT CAVOK 10/M01 Q1023 NOSIG


Station Type Date Time Source
EPWA Decoded METAR 2019/04/23 00:00 UTC NOAA

Warszawa-Okecie, Poland (EPWA) 52-10N 020-58E 107M
Apr 22, 2019 - 08:00 PM EDT / 2019.04.23 0000 UTC
Wind: from the E (100 degrees) at 12 MPH (10 KT):0
Visibility: greater than 7 mile(s):0
Temperature: 50 F (10 C)
Dew Point: 30 F (-1 C)
Relative Humidity: 46%
Pressure (altimeter): 30.21 in. Hg (1023 hPa)
ob: EPWA 230000Z 10010KT CAVOK 10/M01 Q1023 NOSIG
cycle: 0

Station Type Date Time Source
EPWA TAF 2019/04/22 21:35 UTC NOAA

TAF EPWA 222030Z 2221/2321 10007KT CAVOK
BECMG 2307/2309 12017KT
TEMPO 2308/2321 12020G35KT

Example: see airport list